Gunnison, CO

9:23 PM MDT on September 16, 2014 (GMT -0600)
Taylor St. | Change Station
CLOSE
Current Station
Personal Weather Station
Location: Gunnison, CO
Elevation: 7687 ft
Nearby Weather Stations

Elev 7687 ft 38.54 °N, 106.92 °W | Updated 13 minutes ago

Clear
Clear
54.5 °F
Feels Like 54.5 °F
N
0.0
Wind Variable Wind from SW

Today
High -- | Low -- °F
--% Chance of Precip.
Yesterday
High -- | Low -- °F
Precip. -- in
6:50 AM 7:14 PM
Last Quarter, 40% visible
Pressure 30.32 in
Visibility 10.0 miles
Clouds Clear
Dew Point 44 °F
Humidity 68%
Rainfall 0.00 in
Snow Depth 0 in , 0 in , 11 in
UV 0 out of 12
Pollen 5.50 out of 12
Air Quality Not available.
Flu Activity Not available.
METAR KGUC 170315Z AUTO 07003KT 10SM CLR 15/02 A3032 RMK AO1

More Conditions Fewer Conditions

Pressure 30.32 in
Visibility 10.0 miles
Clouds Clear
Dew Point 44 °F
Humidity 68%
Rainfall 0.00 in
Snow Depth 0 in , 0 in , 11 in
UV 0 out of 12
Pollen 5.50 out of 12
Air Quality Not available.
Flu Activity Not available.
METAR KGUC 170315Z AUTO 07003KT 10SM CLR 15/02 A3032 RMK AO1

More Conditions Fewer Conditions

10-Day Weather Forecast

Almanac

Astronomy

Sep. 16, 2014 Rise Set
Actual Time 6:50 AM MDT 7:14 PM MDT
Civil Twilight 6:23 AM MDT 7:40 PM MDT
Nautical Twilight 5:52 AM MDT 8:11 PM MDT
Astronomical Twilight 5:20 AM MDT 8:43 PM MDT
Moon 12:05 AM MDT (9/16) 2:37 PM MDT (9/16)
Length of Visible Light 13h 17m
Length of Day
12h 23m
Tomorrow will be 2m 29s shorter.
Last Quarter, 40% of the Moon is Illuminated
Today
Last Quarter
Sep 24
New
Oct 1
First Quarter
Oct 8
Full
Oct 15
Last Quarter

Today's Extremes

State Highs State Lows

Community

WunderPhotos

Upload Photos

1,753,953 photos uploaded!

Nearby

Snow Depth

Station Depth Elevation
Ute Creek 0 in 10650 ft
Grayback 0 in 11620 ft
Deadman Hill 11 in 10220 ft
Beaver Divide 0 in 8280 ft
Jackwhacker Gulch 0 in 10960 ft

Earthquake Activity

City Distance Mag. Time & Date
No recent earthquake activity has been reported nearby.
Minimum magnitude displayed is 2.5.

Coastal Water Temperatures

Place Temperature
No Stations Reporting

Nearby Weather Stations